createdAt,value
2018-10-04T00:00:54.774Z,9.13
2018-10-04T00:03:42.054Z,7.93
2018-10-04T00:06:29.130Z,11.70
2018-10-04T00:09:16.092Z,5.87
2018-10-04T00:12:03.238Z,5.93
2018-10-04T00:14:53.472Z,5.53
2018-10-04T00:17:42.335Z,4.97
2018-10-04T00:23:40.260Z,8.00
2018-10-04T00:26:30.415Z,8.90
2018-10-04T00:29:18.834Z,7.27
2018-10-04T00:32:06.842Z,9.73
2018-10-04T00:34:58.432Z,5.43
2018-10-04T00:37:50.931Z,6.03
2018-10-04T00:40:39.775Z,6.07
2018-10-04T00:43:27.299Z,8.80
2018-10-04T00:46:15.541Z,7.80
2018-10-04T00:49:03.329Z,6.90
2018-10-04T00:51:50.548Z,9.67
2018-10-04T00:54:37.994Z,5.27
2018-10-04T00:57:25.600Z,7.43
2018-10-04T01:00:13.199Z,6.37
2018-10-04T01:06:07.781Z,5.37
2018-10-04T01:08:58.260Z,7.43
2018-10-04T01:11:46.206Z,9.80
2018-10-04T01:14:37.378Z,8.83
2018-10-04T01:17:27.116Z,8.03
2018-10-04T01:20:15.816Z,7.53
2018-10-04T01:23:03.256Z,5.17
2018-10-04T01:25:50.691Z,9.27
2018-10-04T01:28:38.279Z,7.63
2018-10-04T01:31:25.592Z,7.23
2018-10-04T01:34:12.960Z,9.02
2018-10-04T01:37:00.548Z,8.70
2018-10-04T01:39:47.750Z,8.67
2018-10-04T01:42:35.026Z,4.77
2018-10-04T01:45:22.759Z,11.67
2018-10-04T01:48:10.469Z,5.03
2018-10-04T01:50:58.132Z,7.97
2018-10-04T01:53:46.227Z,6.00
2018-10-04T01:56:34.506Z,9.93
2018-10-04T01:59:21.673Z,6.47
2018-10-04T02:02:09.138Z,7.77
2018-10-04T02:04:56.442Z,11.97
2018-10-04T02:07:43.538Z,7.87
2018-10-04T02:10:30.798Z,6.40
2018-10-04T02:13:18.014Z,5.17
2018-10-04T02:16:05.525Z,7.20
2018-10-04T02:18:52.721Z,8.27
2018-10-04T02:21:41.088Z,9.50
2018-10-04T02:24:28.258Z,6.80
2018-10-04T02:27:16.345Z,8.30
2018-10-04T02:36:23.617Z,9.77
2018-10-04T02:42:17.210Z,6.50
2018-10-04T02:45:04.701Z,8.60
2018-10-04T02:47:53.389Z,5.37
2018-10-04T02:50:41.042Z,7.67
2018-10-04T02:53:28.298Z,10.80
2018-10-04T02:56:25.239Z,6.80
2018-10-04T02:59:12.377Z,6.40
2018-10-04T03:02:00.148Z,10.13
2018-10-04T03:04:47.736Z,8.23
2018-10-04T03:07:36.186Z,5.43
2018-10-04T03:10:23.817Z,8.50
2018-10-04T03:13:11.470Z,11.20
2018-10-04T03:15:59.377Z,10.93
2018-10-04T03:25:06.466Z,8.77
2018-10-04T03:27:54.142Z,7.47
2018-10-04T03:30:44.205Z,7.27
2018-10-04T03:36:44.810Z,7.83
2018-10-04T03:39:44.653Z,8.87
2018-10-04T03:42:38.290Z,10.38
2018-10-04T03:45:29.941Z,11.43
2018-10-04T03:48:20.079Z,11.17
2018-10-04T03:51:09.181Z,6.87
2018-10-04T03:53:59.964Z,10.03
2018-10-04T03:56:47.632Z,8.13
2018-10-04T03:59:45.775Z,4.27
2018-10-04T04:05:44.054Z,8.90
2018-10-04T04:08:33.347Z,7.67
2018-10-04T04:11:36.650Z,7.97
2018-10-04T04:14:28.769Z,8.25
2018-10-04T04:17:17.482Z,8.20
2018-10-04T04:20:08.984Z,9.33
2018-10-04T04:22:58.909Z,10.83
2018-10-04T04:25:46.875Z,9.10
2018-10-04T04:28:34.217Z,7.63
2018-10-04T04:31:22.576Z,6.70
2018-10-04T04:37:18.082Z,8.37
2018-10-04T04:40:08.617Z,8.50
2018-10-04T04:42:56.695Z,10.82
2018-10-04T04:45:44.047Z,8.53
2018-10-04T04:48:33.130Z,7.43
2018-10-04T04:51:21.352Z,8.83
2018-10-04T04:54:12.186Z,13.13
2018-10-04T04:57:00.198Z,8.30
2018-10-04T04:59:47.631Z,9.80
2018-10-04T05:02:42.666Z,9.10
2018-10-04T05:05:30.848Z,9.17
2018-10-04T05:11:27.097Z,9.00
2018-10-04T05:14:15.339Z,6.17
2018-10-04T05:17:02.494Z,4.93
2018-10-04T05:22:56.172Z,7.70
2018-10-04T05:25:43.300Z,11.00
2018-10-04T05:28:32.500Z,9.13
2018-10-04T05:31:19.528Z,9.57
2018-10-04T05:34:06.843Z,7.43
2018-10-04T05:40:00.016Z,7.80
2018-10-04T05:42:47.489Z,10.30
2018-10-04T05:48:41.324Z,12.00
2018-10-04T05:51:30.903Z,8.60
2018-10-04T05:54:18.199Z,7.47
2018-10-04T05:57:20.161Z,7.20
2018-10-04T06:03:31.495Z,8.67
2018-10-04T06:06:21.058Z,10.90
2018-10-04T06:09:09.305Z,12.20
2018-10-04T06:11:56.279Z,7.90
2018-10-04T06:14:45.178Z,10.20
2018-10-04T06:20:39.364Z,6.10
2018-10-04T06:23:26.641Z,10.10
2018-10-04T06:41:47.210Z,7.23
2018-10-04T06:44:36.274Z,14.30
2018-10-04T06:47:23.108Z,9.40
2018-10-04T06:50:10.619Z,11.30
2018-10-04T06:52:57.929Z,12.00
2018-10-04T06:55:45.009Z,7.10
2018-10-04T06:58:32.175Z,10.95
2018-10-04T07:01:19.553Z,8.03
2018-10-04T07:04:06.848Z,8.52
2018-10-04T07:06:54.339Z,12.32
2018-10-04T07:09:41.885Z,11.75
2018-10-04T07:12:29.310Z,10.63
2018-10-04T07:15:17.686Z,9.18
2018-10-04T07:18:05.148Z,12.13
2018-10-04T07:20:52.675Z,9.90
2018-10-04T07:26:45.987Z,12.98
2018-10-04T07:29:33.530Z,12.82
2018-10-04T07:32:20.993Z,11.90
2018-10-04T07:35:08.745Z,12.25
2018-10-04T07:37:56.888Z,10.85
2018-10-04T07:40:45.357Z,10.53
2018-10-04T07:43:32.697Z,12.05
2018-10-04T07:46:20.968Z,13.95
2018-10-04T07:49:08.696Z,10.40
2018-10-04T07:51:57.522Z,11.27
2018-10-04T08:07:16.479Z,11.98
2018-10-04T08:10:22.124Z,13.18
2018-10-04T08:13:10.583Z,14.65
2018-10-04T08:15:59.125Z,10.45
2018-10-04T08:18:46.482Z,11.85
2018-10-04T08:21:35.334Z,10.00
2018-10-04T08:24:28.304Z,12.05
2018-10-04T08:27:15.591Z,13.32
2018-10-04T08:33:12.372Z,13.15
2018-10-04T08:36:11.421Z,11.05
2018-10-04T08:38:59.191Z,13.40
2018-10-04T08:41:46.852Z,15.85
2018-10-04T08:44:36.124Z,12.52
2018-10-04T08:47:25.964Z,11.80
2018-10-04T08:50:17.001Z,14.02
2018-10-04T08:53:05.050Z,11.63
2018-10-04T08:55:52.874Z,11.73
2018-10-04T08:58:40.395Z,16.95
2018-10-04T09:01:28.684Z,13.05
2018-10-04T09:04:16.617Z,14.93
2018-10-04T09:07:05.392Z,9.77
2018-10-04T09:09:53.557Z,14.23
2018-10-04T09:12:42.108Z,12.88
2018-10-04T09:15:32.342Z,14.75
2018-10-04T09:18:19.746Z,14.02
2018-10-04T09:21:08.706Z,15.80
2018-10-04T09:27:05.140Z,15.05
2018-10-04T09:29:53.167Z,15.73
2018-10-04T09:32:47.766Z,11.20
2018-10-04T09:35:35.751Z,10.90
2018-10-04T09:38:28.019Z,12.45
2018-10-04T09:41:18.316Z,16.17
2018-10-04T09:44:11.391Z,13.77
2018-10-04T09:47:00.201Z,12.05
2018-10-04T09:49:52.058Z,14.00
2018-10-04T09:52:43.421Z,11.45
2018-10-04T09:55:31.907Z,9.85
2018-10-04T09:58:23.440Z,14.77
2018-10-04T10:04:36.831Z,16.87
2018-10-04T10:07:25.606Z,10.45
2018-10-04T10:10:13.618Z,15.13
2018-10-04T10:13:01.186Z,11.27
2018-10-04T10:15:48.338Z,11.20
2018-10-04T10:18:35.671Z,12.15
2018-10-04T10:21:23.233Z,8.65
2018-10-04T10:24:10.646Z,14.52
2018-10-04T10:26:57.990Z,14.60
2018-10-04T10:29:45.276Z,12.40
2018-10-04T10:32:32.961Z,15.32
2018-10-04T10:35:20.346Z,9.25
2018-10-04T10:38:07.422Z,12.10
2018-10-04T10:44:01.165Z,9.02
2018-10-04T10:46:48.446Z,11.80
2018-10-04T10:49:36.108Z,9.15
2018-10-04T10:55:29.728Z,8.65
2018-10-04T10:58:24.808Z,10.13
2018-10-04T11:01:12.463Z,11.23
2018-10-04T11:03:59.570Z,9.60
2018-10-04T11:06:46.952Z,11.40
2018-10-04T11:22:00.162Z,11.82
2018-10-04T11:24:47.410Z,7.32
2018-10-04T11:27:34.479Z,8.40
2018-10-04T11:30:21.693Z,9.50
2018-10-04T11:42:28.849Z,10.02
2018-10-04T11:45:15.961Z,7.50
2018-10-04T11:48:03.144Z,9.13
2018-10-04T11:50:52.610Z,5.65
2018-10-04T11:53:37.517Z,8.93
2018-10-04T11:56:24.942Z,5.70
2018-10-04T11:59:13.044Z,7.90
2018-10-04T12:05:06.289Z,6.87
2018-10-04T12:07:53.470Z,8.77
2018-10-04T12:13:47.244Z,5.53
2018-10-04T12:16:34.302Z,7.12
2018-10-04T12:19:21.546Z,9.00
2018-10-04T12:28:21.856Z,8.35
2018-10-04T12:31:09.377Z,9.35
2018-10-04T12:33:56.705Z,6.95
2018-10-04T12:36:44.889Z,9.05
2018-10-04T12:39:32.373Z,8.35
2018-10-04T12:42:19.710Z,8.25
2018-10-04T12:45:06.865Z,6.03
2018-10-04T12:51:03.206Z,8.88
2018-10-04T12:53:50.770Z,5.12
2018-10-04T12:59:45.618Z,8.93
2018-10-04T13:02:34.409Z,4.97
2018-10-04T13:05:22.050Z,4.90
2018-10-04T13:20:36.077Z,5.80
2018-10-04T13:23:23.399Z,6.45
2018-10-04T13:26:11.833Z,4.62
2018-10-04T13:28:59.596Z,6.47
2018-10-04T13:31:49.956Z,5.78
2018-10-04T13:34:38.108Z,5.03
2018-10-04T13:37:41.190Z,5.82
2018-10-04T13:43:36.579Z,6.60
2018-10-04T13:49:30.414Z,5.28
2018-10-04T13:52:19.291Z,7.22
2018-10-04T13:55:06.289Z,7.95
2018-10-04T13:57:53.835Z,6.47
2018-10-04T14:00:41.087Z,6.05
2018-10-04T14:03:28.357Z,8.10
2018-10-04T14:06:15.689Z,8.75
2018-10-04T14:12:17.190Z,7.32
2018-10-04T14:15:04.202Z,6.65
2018-10-04T14:17:51.364Z,6.78
2018-10-04T14:20:40.570Z,8.48
2018-10-04T14:23:27.903Z,6.32
2018-10-04T14:26:15.163Z,5.68
2018-10-04T14:29:02.874Z,5.18
2018-10-04T14:31:50.387Z,7.50
2018-10-04T14:34:37.694Z,7.82
2018-10-04T14:37:40.161Z,6.05
2018-10-04T14:40:27.791Z,6.53
2018-10-04T14:43:15.256Z,6.82
2018-10-04T14:46:02.699Z,10.23
2018-10-04T14:48:50.063Z,7.95
2018-10-04T14:51:40.557Z,8.57
2018-10-04T14:57:34.782Z,9.15
2018-10-04T15:00:22.166Z,7.28
2018-10-04T15:09:22.476Z,11.43
2018-10-04T15:12:10.068Z,10.07
2018-10-04T15:15:00.465Z,6.37
2018-10-04T15:17:47.905Z,7.85
2018-10-04T15:20:35.264Z,7.45
2018-10-04T15:23:22.793Z,5.35
2018-10-04T15:26:10.108Z,5.57
2018-10-04T15:28:59.882Z,5.50
2018-10-04T15:31:47.308Z,8.25
2018-10-04T15:34:34.748Z,6.50
2018-10-04T15:37:22.835Z,9.52
2018-10-04T15:40:11.070Z,10.02
2018-10-04T15:46:06.449Z,5.10
2018-10-04T15:48:54.170Z,7.60
2018-10-04T15:51:42.073Z,5.57
2018-10-04T15:54:29.068Z,7.18
2018-10-04T15:57:16.805Z,5.85
2018-10-04T16:00:06.806Z,7.45
2018-10-04T16:02:56.795Z,7.30
2018-10-04T16:05:44.199Z,10.68
2018-10-04T16:08:33.035Z,6.55
2018-10-04T16:11:23.429Z,6.28
2018-10-04T16:14:11.119Z,5.82
2018-10-04T16:16:58.676Z,5.93
2018-10-04T16:22:53.668Z,5.43
2018-10-04T16:25:42.049Z,4.10
2018-10-04T16:28:29.575Z,4.07
2018-10-04T16:31:16.874Z,3.50
2018-10-04T16:34:22.399Z,5.03
2018-10-04T16:37:09.618Z,3.83
2018-10-04T16:49:16.263Z,5.68
2018-10-04T16:52:04.644Z,5.57
2018-10-04T16:54:52.061Z,5.30
2018-10-04T16:57:39.106Z,6.12
2018-10-04T17:03:33.446Z,7.15
2018-10-04T17:06:20.549Z,6.97
2018-10-04T17:09:07.877Z,5.18
2018-10-04T17:11:56.258Z,7.62
2018-10-04T17:14:43.678Z,5.10
2018-10-04T17:17:31.373Z,5.53
2018-10-04T17:20:18.694Z,4.72
2018-10-04T17:23:06.460Z,5.80
2018-10-04T17:25:54.439Z,4.72
2018-10-04T17:28:41.861Z,4.57
2018-10-04T17:31:30.024Z,6.05
2018-10-04T17:34:17.308Z,6.00
2018-10-04T17:40:10.755Z,4.30
2018-10-04T17:43:02.807Z,4.50
2018-10-04T17:45:51.331Z,6.62
2018-10-04T17:48:46.391Z,11.05
2018-10-04T17:51:33.712Z,6.87
2018-10-04T17:57:28.316Z,7.77
2018-10-04T18:00:23.031Z,4.03
2018-10-04T18:03:10.764Z,5.32
2018-10-04T18:05:58.668Z,6.95
2018-10-04T18:08:49.870Z,4.95
2018-10-04T18:11:36.614Z,6.70
2018-10-04T18:14:23.999Z,3.90
2018-10-04T18:20:17.836Z,4.93
2018-10-04T18:23:05.202Z,6.37
2018-10-04T18:25:59.420Z,5.50
2018-10-04T18:28:47.108Z,10.32
2018-10-04T18:31:34.512Z,6.32
2018-10-04T18:34:21.575Z,6.95
2018-10-04T18:37:08.802Z,6.60
2018-10-04T18:39:56.347Z,10.55
2018-10-04T18:42:52.503Z,8.45
2018-10-04T18:45:40.503Z,6.95
2018-10-04T18:48:27.739Z,9.63
2018-10-04T18:51:15.386Z,4.10
2018-10-04T18:54:03.015Z,7.65
2018-10-04T18:56:50.233Z,4.87
2018-10-04T18:59:37.281Z,8.10
2018-10-04T19:02:24.671Z,6.78
2018-10-04T19:05:13.468Z,9.63
2018-10-04T19:11:07.496Z,8.43
2018-10-04T19:13:56.455Z,7.75
2018-10-04T19:19:53.506Z,5.78
2018-10-04T19:26:00.060Z,11.23
2018-10-04T19:32:07.929Z,6.60
2018-10-04T19:34:59.661Z,8.25
2018-10-04T19:37:51.355Z,8.27
2018-10-04T19:40:49.066Z,9.48
2018-10-04T19:43:37.230Z,7.05
2018-10-04T19:46:24.887Z,6.37
2018-10-04T19:49:13.803Z,8.45
2018-10-04T19:52:02.029Z,8.32
2018-10-04T19:54:51.298Z,8.45
2018-10-04T19:57:48.488Z,10.63
2018-10-04T20:00:42.004Z,5.75
2018-10-04T20:03:27.573Z,8.63
2018-10-04T20:06:15.487Z,8.35
2018-10-04T20:09:03.464Z,8.57
2018-10-04T20:11:54.545Z,9.57
2018-10-04T20:14:46.107Z,10.25
2018-10-04T20:17:34.805Z,10.98
2018-10-04T20:20:22.407Z,11.85
2018-10-04T20:23:10.615Z,6.93
2018-10-04T20:25:59.147Z,9.80
2018-10-04T20:28:46.950Z,10.20
2018-10-04T20:31:34.773Z,10.20
2018-10-04T20:34:23.429Z,8.60
2018-10-04T20:37:11.161Z,6.50
2018-10-04T20:39:58.948Z,7.78
2018-10-04T20:42:47.450Z,8.10
2018-10-04T20:45:35.879Z,11.12
2018-10-04T20:48:25.305Z,10.55
2018-10-04T20:51:12.916Z,6.90
2018-10-04T20:54:00.608Z,8.57
2018-10-04T20:56:48.848Z,11.90
2018-10-04T20:59:36.570Z,8.73
2018-10-04T21:02:24.911Z,7.22
2018-10-04T21:05:15.591Z,10.18
2018-10-04T21:08:15.876Z,8.07
2018-10-04T21:11:03.882Z,10.82
2018-10-04T21:13:51.962Z,7.85
2018-10-04T21:16:41.524Z,8.38
2018-10-04T21:19:30.387Z,8.95
2018-10-04T21:25:26.668Z,9.43
2018-10-04T21:28:14.803Z,12.27
2018-10-04T21:31:04.917Z,13.38
2018-10-04T21:33:56.628Z,8.10
2018-10-04T21:36:42.891Z,6.50
2018-10-04T21:39:36.305Z,12.27
2018-10-04T21:42:24.580Z,8.05
2018-10-04T21:45:14.483Z,7.47
2018-10-04T21:48:02.824Z,11.45
2018-10-04T21:50:51.412Z,9.18
2018-10-04T21:53:39.268Z,7.28
2018-10-04T21:56:26.919Z,6.95
2018-10-04T21:59:15.588Z,11.23
2018-10-04T22:02:04.623Z,8.05
2018-10-04T22:04:52.180Z,7.47
2018-10-04T22:07:39.589Z,7.60
2018-10-04T22:10:28.068Z,7.80
2018-10-04T22:13:15.916Z,7.50
2018-10-04T22:16:03.609Z,8.77
2018-10-04T22:19:01.603Z,7.18
2018-10-04T22:21:49.053Z,7.80
2018-10-04T22:24:36.502Z,5.28
2018-10-04T22:30:31.512Z,10.18
2018-10-04T22:33:20.665Z,6.68
2018-10-04T22:36:08.961Z,7.90
2018-10-04T22:38:57.474Z,9.48
2018-10-04T22:41:45.681Z,7.78
2018-10-04T22:44:37.892Z,10.25
2018-10-04T22:53:43.756Z,14.13
2018-10-04T22:59:39.384Z,26.08
2018-10-04T23:02:26.972Z,22.80
2018-10-04T23:05:23.912Z,27.03
2018-10-04T23:08:14.637Z,16.83
2018-10-04T23:11:05.837Z,14.97
2018-10-04T23:13:55.621Z,13.93
2018-10-04T23:23:00.348Z,12.87
2018-10-04T23:28:58.035Z,9.18
2018-10-04T23:31:47.835Z,9.23
2018-10-04T23:34:35.933Z,8.52
2018-10-04T23:37:22.825Z,8.13
2018-10-04T23:40:10.934Z,7.90
2018-10-04T23:43:00.323Z,9.53
2018-10-04T23:45:47.632Z,9.77
2018-10-04T23:48:36.862Z,9.20
2018-10-04T23:51:24.781Z,9.05
2018-10-04T23:57:23.363Z,8.37
